createdAt,value
2022-09-18T00:01:32.016Z,12.14
2022-09-18T00:04:05.028Z,12.36
2022-09-18T00:06:36.186Z,12.45
2022-09-18T00:09:08.871Z,12.47
2022-09-18T00:11:40.240Z,12.38
2022-09-18T00:14:09.902Z,12.48
2022-09-18T00:16:37.981Z,12.35
2022-09-18T00:19:06.334Z,12.48
2022-09-18T00:21:35.740Z,12.44
2022-09-18T00:24:04.116Z,12.35
2022-09-18T00:26:31.430Z,12.46
2022-09-18T00:28:58.889Z,12.20
2022-09-18T00:31:35.152Z,12.39
2022-09-18T00:34:07.583Z,12.20
2022-09-18T00:36:35.820Z,12.37
2022-09-18T00:39:03.280Z,12.16
2022-09-18T00:41:34.948Z,12.18
2022-09-18T00:44:32.507Z,12.28
2022-09-18T00:47:11.115Z,12.28
2022-09-18T00:50:01.520Z,12.22
2022-09-18T00:52:37.176Z,12.15
2022-09-18T00:55:09.879Z,12.29
2022-09-18T00:57:42.606Z,12.40
2022-09-18T01:00:11.937Z,12.46
2022-09-18T01:02:44.495Z,12.43
2022-09-18T01:05:14.761Z,12.36
2022-09-18T01:08:22.777Z,12.44
2022-09-18T01:11:13.534Z,12.46
2022-09-18T01:14:26.662Z,12.35
2022-09-18T01:17:13.426Z,12.38
2022-09-18T01:20:19.285Z,12.43
2022-09-18T01:23:37.158Z,12.35
2022-09-18T01:27:10.859Z,12.40
2022-09-18T01:30:16.348Z,12.29
2022-09-18T01:33:38.145Z,12.33
2022-09-18T01:36:09.380Z,12.27
2022-09-18T01:38:41.813Z,12.17
2022-09-18T01:41:16.653Z,12.40
2022-09-18T01:43:46.816Z,12.28
2022-09-18T01:46:16.701Z,12.16
2022-09-18T01:49:10.552Z,11.91
2022-09-18T01:52:16.168Z,12.06
2022-09-18T01:54:49.012Z,12.04
2022-09-18T01:57:26.895Z,12.06
2022-09-18T02:00:09.172Z,11.85
2022-09-18T02:02:51.912Z,11.76
2022-09-18T02:05:32.147Z,11.94
2022-09-18T02:08:14.967Z,12.00
2022-09-18T02:10:54.583Z,11.91
2022-09-18T02:13:27.771Z,11.92
2022-09-18T02:16:02.384Z,11.80
2022-09-18T02:18:40.038Z,11.87
2022-09-18T02:21:14.637Z,11.78
2022-09-18T02:23:42.302Z,11.82
2022-09-18T02:26:11.433Z,11.91
2022-09-18T02:28:40.095Z,11.88
2022-09-18T02:31:06.927Z,11.87
2022-09-18T02:33:38.482Z,11.82
2022-09-18T02:36:51.766Z,12.02
2022-09-18T02:40:06.902Z,11.94
2022-09-18T02:43:18.734Z,11.99
2022-09-18T02:46:23.063Z,11.91
2022-09-18T02:49:08.176Z,11.90
2022-09-18T02:51:53.881Z,12.08
2022-09-18T02:54:28.731Z,11.76
2022-09-18T02:57:18.719Z,11.83
2022-09-18T02:59:51.807Z,11.79
2022-09-18T03:02:22.735Z,11.63
2022-09-18T03:04:50.471Z,11.71
2022-09-18T03:07:18.254Z,11.69
2022-09-18T03:09:45.306Z,11.62
2022-09-18T03:12:13.016Z,11.64
2022-09-18T03:14:39.816Z,11.79
2022-09-18T03:17:07.151Z,11.84
2022-09-18T03:19:33.983Z,11.81
2022-09-18T03:22:01.268Z,11.73
2022-09-18T03:24:28.098Z,11.75
2022-09-18T03:26:54.895Z,11.90
2022-09-18T03:29:21.702Z,11.91
2022-09-18T03:31:48.821Z,11.91
2022-09-18T03:34:15.708Z,11.95
2022-09-18T03:36:42.497Z,11.94
2022-09-18T03:39:09.279Z,11.77
2022-09-18T03:41:36.071Z,12.02
2022-09-18T03:44:03.163Z,12.10
2022-09-18T03:46:29.964Z,12.03
2022-09-18T03:48:56.950Z,12.02
2022-09-18T03:51:23.904Z,12.19
2022-09-18T03:53:51.208Z,12.10
2022-09-18T03:56:18.116Z,12.16
2022-09-18T03:58:45.045Z,12.21
2022-09-18T04:01:13.671Z,12.21
2022-09-18T04:03:40.848Z,12.14
2022-09-18T04:06:07.992Z,12.16
2022-09-18T04:08:35.900Z,12.28
2022-09-18T04:11:04.575Z,12.22
2022-09-18T04:13:35.000Z,12.16
2022-09-18T04:16:02.234Z,12.23
2022-09-18T04:18:29.332Z,12.22
2022-09-18T04:20:56.180Z,12.12
2022-09-18T04:23:23.004Z,12.29
2022-09-18T04:25:49.815Z,12.32
2022-09-18T04:28:16.684Z,12.20
2022-09-18T04:30:43.503Z,12.09
2022-09-18T04:33:10.300Z,12.23
2022-09-18T04:35:37.113Z,12.29
2022-09-18T04:38:04.182Z,12.15
2022-09-18T04:40:31.493Z,12.17
2022-09-18T04:42:58.851Z,12.16
2022-09-18T04:45:25.660Z,12.15
2022-09-18T04:47:52.500Z,12.23
2022-09-18T04:50:19.437Z,12.19
2022-09-18T04:52:46.241Z,12.25
2022-09-18T04:55:13.056Z,12.11
2022-09-18T04:57:39.862Z,12.24
2022-09-18T05:00:08.427Z,12.29
2022-09-18T05:02:35.188Z,12.16
2022-09-18T05:05:01.978Z,12.14
2022-09-18T05:07:30.902Z,12.24
2022-09-18T05:09:57.685Z,12.15
2022-09-18T05:12:24.475Z,12.19
2022-09-18T05:14:51.307Z,12.19
2022-09-18T05:17:18.116Z,12.21
2022-09-18T05:19:44.916Z,12.32
2022-09-18T05:22:11.717Z,12.36
2022-09-18T05:24:38.575Z,12.20
2022-09-18T05:27:05.663Z,12.32
2022-09-18T05:29:32.466Z,12.39
2022-09-18T05:31:59.300Z,12.16
2022-09-18T05:34:26.108Z,12.29
2022-09-18T05:36:52.960Z,12.38
2022-09-18T05:39:19.778Z,12.30
2022-09-18T05:41:50.707Z,12.25
2022-09-18T05:44:18.582Z,12.28
2022-09-18T05:46:48.272Z,12.26
2022-09-18T05:49:15.343Z,12.29
2022-09-18T05:51:42.132Z,12.15
2022-09-18T05:54:08.982Z,12.25
2022-09-18T05:56:35.780Z,12.22
2022-09-18T05:59:02.578Z,12.24
2022-09-18T06:01:31.151Z,12.25
2022-09-18T06:03:59.455Z,12.22
2022-09-18T06:06:29.824Z,12.17
2022-09-18T06:08:57.064Z,12.21
2022-09-18T06:11:24.251Z,12.22
2022-09-18T06:13:52.449Z,12.08
2022-09-18T06:16:20.314Z,12.08
2022-09-18T06:18:47.482Z,11.92
2022-09-18T06:21:16.933Z,12.08
2022-09-18T06:23:43.762Z,12.05
2022-09-18T06:26:14.932Z,11.88
2022-09-18T06:28:43.194Z,11.90
2022-09-18T06:31:10.753Z,12.03
2022-09-18T06:33:37.728Z,11.96
2022-09-18T06:36:08.823Z,11.94
2022-09-18T06:38:35.980Z,12.07
2022-09-18T06:41:02.825Z,11.97
2022-09-18T06:43:29.649Z,11.90
2022-09-18T06:45:57.964Z,12.03
2022-09-18T06:48:25.597Z,12.02
2022-09-18T06:50:57.804Z,12.08
2022-09-18T06:53:26.074Z,12.14
2022-09-18T06:55:53.258Z,12.02
2022-09-18T06:58:20.243Z,12.02
2022-09-18T07:00:47.232Z,12.16
2022-09-18T07:03:14.110Z,12.08
2022-09-18T07:05:44.898Z,12.12
2022-09-18T07:08:12.748Z,12.16
2022-09-18T07:10:40.839Z,12.10
2022-09-18T07:13:07.647Z,12.15
2022-09-18T07:15:34.499Z,12.29
2022-09-18T07:18:03.803Z,12.37
2022-09-18T07:20:30.719Z,12.38
2022-09-18T07:23:00.389Z,12.29
2022-09-18T07:25:30.152Z,12.26
2022-09-18T07:28:07.867Z,12.28
2022-09-18T07:30:36.384Z,12.35
2022-09-18T07:33:05.461Z,12.42
2022-09-18T07:35:32.992Z,12.50
2022-09-18T07:38:01.237Z,12.44
2022-09-18T07:40:28.362Z,12.43
2022-09-18T07:43:06.985Z,12.41
2022-09-18T07:45:34.264Z,12.57
2022-09-18T07:48:06.897Z,12.57
2022-09-18T07:50:33.953Z,12.66
2022-09-18T07:53:05.431Z,12.64
2022-09-18T07:55:36.691Z,12.64
2022-09-18T07:58:06.868Z,12.85
2022-09-18T08:00:37.123Z,12.78
2022-09-18T08:03:07.429Z,12.68
2022-09-18T08:05:34.327Z,12.57
2022-09-18T08:08:13.010Z,12.68
2022-09-18T08:10:42.436Z,12.71
2022-09-18T08:13:09.622Z,12.57
2022-09-18T08:15:39.735Z,12.72
2022-09-18T08:18:08.415Z,12.71
2022-09-18T08:20:35.378Z,12.53
2022-09-18T08:23:04.749Z,12.57
2022-09-18T08:25:32.234Z,12.68
2022-09-18T08:28:04.123Z,12.72
2022-09-18T08:30:31.887Z,12.62
2022-09-18T08:33:06.990Z,12.66
2022-09-18T08:35:34.180Z,12.55
2022-09-18T08:38:01.875Z,12.61
2022-09-18T08:41:23.216Z,12.73
2022-09-18T08:44:16.732Z,12.58
2022-09-18T08:47:00.907Z,12.53
2022-09-18T08:49:41.926Z,12.54
2022-09-18T08:52:39.460Z,12.64
2022-09-18T08:55:24.744Z,12.64
2022-09-18T08:58:00.358Z,12.74
2022-09-18T09:00:34.956Z,12.70
2022-09-18T09:03:25.162Z,12.64
2022-09-18T09:06:41.604Z,12.75
2022-09-18T09:09:33.330Z,12.85
2022-09-18T09:12:43.580Z,12.84
2022-09-18T09:15:34.096Z,12.85
2022-09-18T09:18:18.917Z,12.92
2022-09-18T09:20:54.044Z,12.96
2022-09-18T09:23:44.703Z,12.86
2022-09-18T09:26:23.236Z,12.92
2022-09-18T09:29:10.667Z,12.78
2022-09-18T09:31:44.883Z,12.80
2022-09-18T09:34:20.996Z,12.90
2022-09-18T09:36:51.093Z,13.02
2022-09-18T09:39:27.615Z,13.05
2022-09-18T09:42:10.844Z,12.90
2022-09-18T09:44:46.904Z,12.83
2022-09-18T09:47:19.942Z,12.87
2022-09-18T09:50:06.629Z,12.99
2022-09-18T09:52:38.359Z,13.07
2022-09-18T09:55:14.416Z,13.05
2022-09-18T09:58:06.507Z,13.04
2022-09-18T10:01:01.838Z,12.93
2022-09-18T10:03:54.159Z,13.14
2022-09-18T10:06:50.157Z,13.20
2022-09-18T10:09:22.374Z,13.35
2022-09-18T10:12:09.095Z,13.31
2022-09-18T10:14:38.657Z,13.24
2022-09-18T10:17:06.923Z,13.36
2022-09-18T10:19:38.596Z,13.49
2022-09-18T10:22:08.601Z,13.53
2022-09-18T10:24:56.846Z,13.53
2022-09-18T10:27:25.687Z,13.55
2022-09-18T10:29:55.867Z,13.43
2022-09-18T10:32:38.101Z,13.71
2022-09-18T10:35:30.797Z,13.80
2022-09-18T10:37:59.173Z,13.75
2022-09-18T10:40:39.765Z,13.92
2022-09-18T10:43:18.705Z,13.91
2022-09-18T10:45:53.147Z,13.83
2022-09-18T10:48:27.374Z,13.97
2022-09-18T10:51:01.441Z,14.07
2022-09-18T10:53:34.620Z,14.23
2022-09-18T10:56:16.829Z,14.44
2022-09-18T10:58:44.922Z,14.32
2022-09-18T11:01:12.894Z,14.34
2022-09-18T11:03:47.486Z,14.42
2022-09-18T11:06:26.052Z,14.42
2022-09-18T11:09:00.960Z,14.47
2022-09-18T11:11:34.978Z,14.65
2022-09-18T11:14:22.301Z,14.49
2022-09-18T11:16:54.535Z,14.70
2022-09-18T11:19:33.818Z,14.71
2022-09-18T11:22:04.658Z,14.93
2022-09-18T11:24:38.485Z,14.95
2022-09-18T11:27:59.507Z,14.80
2022-09-18T11:30:32.090Z,14.66
2022-09-18T11:33:25.081Z,14.50
2022-09-18T11:36:02.067Z,14.56
2022-09-18T11:38:29.761Z,14.66
2022-09-18T11:40:58.897Z,14.61
2022-09-18T11:43:38.096Z,14.62
2022-09-18T11:46:27.540Z,14.54
2022-09-18T11:49:26.377Z,14.74
2022-09-18T11:52:26.471Z,14.92
2022-09-18T11:55:18.129Z,15.06
2022-09-18T11:58:13.047Z,15.14
2022-09-18T12:00:49.459Z,14.99
2022-09-18T12:03:31.491Z,15.03
2022-09-18T12:06:16.975Z,15.20
2022-09-18T12:09:11.272Z,15.22
2022-09-18T12:12:19.092Z,15.18
2022-09-18T12:15:19.324Z,15.26
2022-09-18T12:18:09.034Z,15.45
2022-09-18T12:21:11.302Z,15.39
2022-09-18T12:23:38.313Z,15.35
2022-09-18T12:26:22.357Z,15.25
2022-09-18T12:29:31.368Z,15.32
2022-09-18T12:32:43.713Z,15.37
2022-09-18T12:35:42.935Z,15.09
2022-09-18T12:38:21.784Z,15.24
2022-09-18T12:41:32.595Z,15.24
2022-09-18T12:44:11.750Z,15.18
2022-09-18T12:46:47.654Z,15.22
2022-09-18T12:49:42.032Z,15.17
2022-09-18T12:52:27.742Z,15.32
2022-09-18T12:55:18.128Z,15.39
2022-09-18T12:58:10.256Z,15.29
2022-09-18T13:00:39.565Z,15.24
2022-09-18T13:03:31.210Z,15.23
2022-09-18T13:06:29.396Z,15.17
2022-09-18T13:09:11.232Z,15.28
2022-09-18T13:11:58.695Z,15.24
2022-09-18T13:14:46.026Z,15.29
2022-09-18T13:17:22.284Z,15.32
2022-09-18T13:20:07.452Z,15.29
2022-09-18T13:22:38.016Z,15.33
2022-09-18T13:25:21.977Z,15.25
2022-09-18T13:27:50.379Z,15.22
2022-09-18T13:30:32.237Z,15.30
2022-09-18T13:33:00.797Z,15.18
2022-09-18T13:35:31.451Z,15.32
2022-09-18T13:38:20.844Z,15.43
2022-09-18T13:41:02.394Z,15.16
2022-09-18T13:43:29.028Z,15.33
2022-09-18T13:45:58.059Z,15.43
2022-09-18T13:48:29.692Z,15.47
2022-09-18T13:51:00.788Z,15.26
2022-09-18T13:53:36.344Z,15.30
2022-09-18T13:56:05.585Z,15.29
2022-09-18T13:58:33.305Z,15.34
2022-09-18T14:01:07.908Z,15.21
2022-09-18T14:03:40.788Z,15.16
2022-09-18T14:06:35.520Z,15.19
2022-09-18T14:09:38.185Z,15.12
2022-09-18T14:12:16.390Z,15.14
2022-09-18T14:14:44.776Z,15.01
2022-09-18T14:17:14.591Z,15.12
2022-09-18T14:19:45.082Z,15.02
2022-09-18T14:22:28.957Z,15.10
2022-09-18T14:25:06.388Z,15.07
2022-09-18T14:27:48.937Z,15.06
2022-09-18T14:30:24.424Z,15.02
2022-09-18T14:33:05.363Z,15.07
2022-09-18T14:35:43.951Z,15.08
2022-09-18T14:38:41.015Z,15.08
2022-09-18T14:41:28.530Z,15.06
2022-09-18T14:44:01.687Z,15.07
2022-09-18T14:46:29.150Z,15.14
2022-09-18T14:48:56.364Z,15.05
2022-09-18T14:51:27.822Z,14.93
2022-09-18T14:53:57.712Z,15.03
2022-09-18T14:56:32.451Z,15.01
2022-09-18T14:59:06.010Z,14.95
2022-09-18T15:01:36.626Z,14.96
2022-09-18T15:04:07.073Z,14.93
2022-09-18T15:06:53.500Z,14.90
2022-09-18T15:09:33.386Z,14.85
2022-09-18T15:12:02.894Z,15.06
2022-09-18T15:14:43.972Z,15.11
2022-09-18T15:17:28.109Z,15.02
2022-09-18T15:20:14.208Z,15.08
2022-09-18T15:22:43.634Z,14.98
2022-09-18T15:25:15.546Z,14.88
2022-09-18T15:27:44.409Z,15.02
2022-09-18T15:30:20.994Z,15.04
2022-09-18T15:33:18.742Z,15.05
2022-09-18T15:35:51.255Z,15.02
2022-09-18T15:38:22.634Z,15.02
2022-09-18T15:40:50.826Z,14.87
2022-09-18T15:43:35.356Z,15.03
2022-09-18T15:46:04.411Z,14.97
2022-09-18T15:48:44.002Z,14.95
2022-09-18T15:51:29.453Z,14.90
2022-09-18T15:54:10.428Z,14.88
2022-09-18T15:56:58.795Z,14.83
2022-09-18T15:59:28.604Z,14.88
2022-09-18T16:01:56.354Z,14.88
2022-09-18T16:04:34.712Z,14.94
2022-09-18T16:07:14.976Z,14.90
2022-09-18T16:09:45.085Z,14.90
2022-09-18T16:12:29.994Z,14.89
2022-09-18T16:15:23.029Z,14.87
2022-09-18T16:17:56.893Z,14.87
2022-09-18T16:20:50.973Z,14.85
2022-09-18T16:23:53.629Z,14.86
2022-09-18T16:26:31.124Z,14.83
2022-09-18T16:29:21.037Z,14.89
2022-09-18T16:31:48.345Z,14.86
2022-09-18T16:34:22.789Z,14.85
2022-09-18T16:36:50.545Z,14.90
2022-09-18T16:39:21.220Z,14.89
2022-09-18T16:41:48.470Z,14.90
2022-09-18T16:44:16.991Z,14.74
2022-09-18T16:47:03.967Z,14.90
2022-09-18T16:49:37.757Z,14.90
2022-09-18T16:52:05.566Z,14.91
2022-09-18T16:54:32.649Z,14.73
2022-09-18T16:57:15.880Z,14.92
2022-09-18T16:59:43.426Z,15.03
2022-09-18T17:02:13.389Z,14.89
2022-09-18T17:04:40.375Z,14.86
2022-09-18T17:07:07.316Z,14.73
2022-09-18T17:09:34.289Z,14.78
2022-09-18T17:12:01.151Z,14.91
2022-09-18T17:14:27.948Z,14.79
2022-09-18T17:16:54.979Z,14.81
2022-09-18T17:19:22.168Z,14.82
2022-09-18T17:21:49.396Z,14.88
2022-09-18T17:24:17.460Z,14.69
2022-09-18T17:26:44.452Z,14.68
2022-09-18T17:29:12.081Z,14.80
2022-09-18T17:31:39.039Z,14.62
2022-09-18T17:34:05.917Z,14.66
2022-09-18T17:36:36.740Z,14.73
2022-09-18T17:39:04.019Z,14.69
2022-09-18T17:41:32.591Z,14.56
2022-09-18T17:43:59.489Z,14.59
2022-09-18T17:46:26.591Z,14.62
2022-09-18T17:48:55.318Z,14.53
2022-09-18T17:51:27.735Z,14.66
2022-09-18T17:54:05.210Z,14.58
2022-09-18T17:56:33.614Z,14.52
2022-09-18T17:59:05.425Z,14.46
2022-09-18T18:01:36.512Z,14.50
2022-09-18T18:04:06.848Z,14.33
2022-09-18T18:06:35.087Z,14.45
2022-09-18T18:09:01.970Z,14.44
2022-09-18T18:11:29.883Z,14.46
2022-09-18T18:13:56.829Z,14.35
2022-09-18T18:16:28.762Z,14.53
2022-09-18T18:19:02.913Z,14.39
2022-09-18T18:21:31.764Z,14.47
2022-09-18T18:24:01.498Z,14.48
2022-09-18T18:26:28.711Z,14.46
2022-09-18T18:28:55.644Z,14.45
2022-09-18T18:31:25.405Z,14.47
2022-09-18T18:33:55.044Z,14.49
2022-09-18T18:36:28.619Z,14.45
2022-09-18T18:38:59.243Z,14.34
2022-09-18T18:41:29.066Z,14.29
2022-09-18T18:43:58.596Z,14.45
2022-09-18T18:46:28.511Z,14.40
2022-09-18T18:49:00.351Z,14.41
2022-09-18T18:51:29.075Z,14.35
2022-09-18T18:53:56.479Z,14.43
2022-09-18T18:56:24.005Z,14.40
2022-09-18T18:59:00.577Z,14.34
2022-09-18T19:01:28.762Z,14.37
2022-09-18T19:04:02.803Z,14.33
2022-09-18T19:06:30.055Z,14.40
2022-09-18T19:09:00.419Z,14.43
2022-09-18T19:11:29.997Z,14.31
2022-09-18T19:13:57.239Z,14.53
2022-09-18T19:16:26.627Z,14.45
2022-09-18T19:19:00.188Z,14.51
2022-09-18T19:21:28.459Z,14.43
2022-09-18T19:23:59.186Z,14.37
2022-09-18T19:26:28.623Z,14.37
2022-09-18T19:29:04.628Z,14.24
2022-09-18T19:31:33.419Z,14.38
2022-09-18T19:34:00.254Z,14.26
2022-09-18T19:36:29.809Z,14.31
2022-09-18T19:39:03.974Z,14.34
2022-09-18T19:42:03.952Z,14.32
2022-09-18T19:44:35.655Z,14.30
2022-09-18T19:47:15.374Z,14.14
2022-09-18T19:49:42.246Z,14.24
2022-09-18T19:52:35.548Z,14.11
2022-09-18T19:55:02.448Z,14.26
2022-09-18T19:57:30.120Z,14.11
2022-09-18T19:59:58.594Z,14.22
2022-09-18T20:02:25.612Z,14.27
2022-09-18T20:04:52.708Z,14.28
2022-09-18T20:07:19.558Z,14.22
2022-09-18T20:09:46.349Z,14.22
2022-09-18T20:12:13.671Z,14.29
2022-09-18T20:14:40.502Z,14.14
2022-09-18T20:17:08.257Z,14.25
2022-09-18T20:19:35.387Z,14.25
2022-09-18T20:22:02.889Z,14.21
2022-09-18T20:24:31.455Z,14.19
2022-09-18T20:26:59.523Z,14.14
2022-09-18T20:29:27.520Z,14.10
2022-09-18T20:31:54.848Z,14.04
2022-09-18T20:34:24.724Z,14.00
2022-09-18T20:36:52.356Z,14.03
2022-09-18T20:39:19.504Z,13.92
2022-09-18T20:41:47.571Z,13.73
2022-09-18T20:44:14.655Z,13.78
2022-09-18T20:46:43.015Z,13.78
2022-09-18T20:49:11.092Z,13.80
2022-09-18T20:51:37.945Z,13.77
2022-09-18T20:54:09.387Z,13.69
2022-09-18T20:56:43.243Z,13.56
2022-09-18T20:59:13.045Z,13.61
2022-09-18T21:01:43.057Z,13.61
2022-09-18T21:04:19.383Z,13.59
2022-09-18T21:06:55.993Z,13.58
2022-09-18T21:09:28.401Z,13.60
2022-09-18T21:11:58.336Z,13.45
2022-09-18T21:14:25.511Z,13.46
2022-09-18T21:16:53.683Z,13.63
2022-09-18T21:19:20.636Z,13.55
2022-09-18T21:21:48.560Z,13.45
2022-09-18T21:24:16.007Z,13.58
2022-09-18T21:26:49.185Z,13.57
2022-09-18T21:29:18.735Z,13.53
2022-09-18T21:31:47.972Z,13.33
2022-09-18T21:34:24.116Z,13.57
2022-09-18T21:36:54.983Z,13.47
2022-09-18T21:39:22.120Z,13.52
2022-09-18T21:41:49.099Z,13.54
2022-09-18T21:44:21.539Z,13.45
2022-09-18T21:46:49.030Z,13.37
2022-09-18T21:49:16.433Z,13.38
2022-09-18T21:51:43.798Z,13.40
2022-09-18T21:54:18.257Z,13.35
2022-09-18T21:56:49.174Z,13.23
2022-09-18T21:59:16.219Z,13.35
2022-09-18T22:01:43.565Z,13.31
2022-09-18T22:04:11.182Z,13.30
2022-09-18T22:06:43.538Z,13.30
2022-09-18T22:09:18.312Z,13.20
2022-09-18T22:11:46.833Z,13.23
2022-09-18T22:14:18.110Z,13.21
2022-09-18T22:16:47.081Z,13.20
2022-09-18T22:19:15.957Z,13.18
2022-09-18T22:21:46.459Z,13.04
2022-09-18T22:24:19.903Z,13.04
2022-09-18T22:26:55.088Z,13.04
2022-09-18T22:29:28.532Z,12.87
2022-09-18T22:31:55.789Z,13.09
2022-09-18T22:34:27.080Z,12.79
2022-09-18T22:36:54.606Z,12.92
2022-09-18T22:39:22.623Z,13.01
2022-09-18T22:41:51.451Z,12.98
2022-09-18T22:44:21.221Z,12.99
2022-09-18T22:46:49.368Z,12.97
2022-09-18T22:49:18.590Z,13.02
2022-09-18T22:51:46.452Z,12.99
2022-09-18T22:54:15.126Z,13.10
2022-09-18T22:56:47.563Z,13.05
2022-09-18T22:59:18.818Z,13.02
2022-09-18T23:02:02.638Z,13.01
2022-09-18T23:04:31.785Z,12.94
2022-09-18T23:06:59.472Z,12.94
2022-09-18T23:09:27.434Z,12.92
2022-09-18T23:11:54.407Z,12.82
2022-09-18T23:14:25.902Z,12.93
2022-09-18T23:16:53.513Z,12.93
2022-09-18T23:19:28.440Z,12.82
2022-09-18T23:21:55.690Z,12.75
2022-09-18T23:24:23.508Z,12.91
2022-09-18T23:26:52.775Z,12.71
2022-09-18T23:29:22.733Z,12.76
2022-09-18T23:31:52.906Z,12.77
2022-09-18T23:34:23.737Z,12.64
2022-09-18T23:36:54.066Z,12.51
2022-09-18T23:39:35.720Z,12.48
2022-09-18T23:42:04.447Z,12.41
2022-09-18T23:44:31.641Z,12.07
2022-09-18T23:46:59.157Z,12.19
2022-09-18T23:49:26.668Z,12.16
2022-09-18T23:51:54.448Z,12.21
2022-09-18T23:54:26.402Z,12.18
2022-09-18T23:56:53.978Z,12.10
2022-09-18T23:59:23.518Z,11.92
